sensor_id;sensor_type;location;lat;lon;timestamp;P1;durP1;ratioP1;P2;durP2;ratioP2
19231;SDS011;9750;48.730;10.294;2022-12-11T00:00:08;16.40;;;12.80;;
19231;SDS011;9750;48.730;10.294;2022-12-11T00:02:39;18.97;;;13.20;;
19231;SDS011;9750;48.730;10.294;2022-12-11T00:05:07;16.10;;;12.93;;
19231;SDS011;9750;48.730;10.294;2022-12-11T00:07:34;13.40;;;9.50;;
19231;SDS011;9750;48.730;10.294;2022-12-11T00:10:02;11.90;;;9.70;;
19231;SDS011;9750;48.730;10.294;2022-12-11T00:12:30;15.63;;;11.43;;
19231;SDS011;9750;48.730;10.294;2022-12-11T00:14:58;13.40;;;11.00;;
19231;SDS011;9750;48.730;10.294;2022-12-11T00:17:27;14.73;;;11.50;;
19231;SDS011;9750;48.730;10.294;2022-12-11T00:19:54;13.37;;;10.60;;
19231;SDS011;9750;48.730;10.294;2022-12-11T00:22:21;17.90;;;12.60;;
19231;SDS011;9750;48.730;10.294;2022-12-11T00:24:48;13.73;;;11.27;;
19231;SDS011;9750;48.730;10.294;2022-12-11T00:27:16;17.13;;;12.87;;
19231;SDS011;9750;48.730;10.294;2022-12-11T00:29:44;13.50;;;10.37;;
19231;SDS011;9750;48.730;10.294;2022-12-11T00:32:11;17.07;;;12.20;;
19231;SDS011;9750;48.730;10.294;2022-12-11T00:34:40;12.87;;;10.87;;
19231;SDS011;9750;48.730;10.294;2022-12-11T00:37:07;18.10;;;13.13;;
19231;SDS011;9750;48.730;10.294;2022-12-11T00:39:35;13.67;;;11.63;;
19231;SDS011;9750;48.730;10.294;2022-12-11T00:42:04;16.00;;;12.80;;
19231;SDS011;9750;48.730;10.294;2022-12-11T00:44:31;16.90;;;12.80;;
19231;SDS011;9750;48.730;10.294;2022-12-11T00:46:59;15.83;;;12.17;;
19231;SDS011;9750;48.730;10.294;2022-12-11T00:49:26;20.10;;;14.27;;
19231;SDS011;9750;48.730;10.294;2022-12-11T00:51:55;17.17;;;12.47;;
19231;SDS011;9750;48.730;10.294;2022-12-11T00:54:22;18.07;;;12.73;;
19231;SDS011;9750;48.730;10.294;2022-12-11T00:56:50;19.73;;;14.30;;
19231;SDS011;9750;48.730;10.294;2022-12-11T00:59:17;14.53;;;11.47;;
19231;SDS011;9750;48.730;10.294;2022-12-11T01:01:44;17.03;;;12.73;;
19231;SDS011;9750;48.730;10.294;2022-12-11T01:04:11;18.63;;;14.33;;
19231;SDS011;9750;48.730;10.294;2022-12-11T01:06:39;20.03;;;14.33;;
19231;SDS011;9750;48.730;10.294;2022-12-11T01:09:08;16.93;;;13.20;;
19231;SDS011;9750;48.730;10.294;2022-12-11T01:11:52;22.77;;;15.37;;
19231;SDS011;9750;48.730;10.294;2022-12-11T01:14:19;18.30;;;14.17;;
19231;SDS011;9750;48.730;10.294;2022-12-11T01:16:47;16.33;;;12.23;;
19231;SDS011;9750;48.730;10.294;2022-12-11T01:19:14;21.87;;;14.87;;
19231;SDS011;9750;48.730;10.294;2022-12-11T01:21:41;18.10;;;13.40;;
19231;SDS011;9750;48.730;10.294;2022-12-11T01:27:32;20.93;;;14.87;;
19231;SDS011;9750;48.730;10.294;2022-12-11T01:29:59;19.70;;;13.73;;
19231;SDS011;9750;48.730;10.294;2022-12-11T01:32:26;20.97;;;14.77;;
19231;SDS011;9750;48.730;10.294;2022-12-11T01:34:54;15.43;;;11.80;;
19231;SDS011;9750;48.730;10.294;2022-12-11T01:37:21;18.00;;;13.13;;
19231;SDS011;9750;48.730;10.294;2022-12-11T01:39:48;18.77;;;14.77;;
19231;SDS011;9750;48.730;10.294;2022-12-11T01:42:16;15.93;;;12.00;;
19231;SDS011;9750;48.730;10.294;2022-12-11T01:47:54;20.57;;;14.03;;
19231;SDS011;9750;48.730;10.294;2022-12-11T01:50:26;15.30;;;12.63;;
19231;SDS011;9750;48.730;10.294;2022-12-11T01:52:55;20.50;;;14.20;;
19231;SDS011;9750;48.730;10.294;2022-12-11T01:55:22;18.87;;;13.50;;
19231;SDS011;9750;48.730;10.294;2022-12-11T01:57:50;20.40;;;14.63;;
19231;SDS011;9750;48.730;10.294;2022-12-11T02:00:18;19.17;;;14.37;;
19231;SDS011;9750;48.730;10.294;2022-12-11T02:02:46;16.17;;;13.37;;
19231;SDS011;9750;48.730;10.294;2022-12-11T02:05:15;21.20;;;15.07;;
19231;SDS011;9750;48.730;10.294;2022-12-11T02:07:43;17.17;;;13.43;;
19231;SDS011;9750;48.730;10.294;2022-12-11T02:10:13;19.40;;;14.20;;
19231;SDS011;9750;48.730;10.294;2022-12-11T02:12:44;18.00;;;13.27;;
19231;SDS011;9750;48.730;10.294;2022-12-11T02:15:23;20.47;;;14.47;;
19231;SDS011;9750;48.730;10.294;2022-12-11T02:17:58;16.60;;;12.87;;
19231;SDS011;9750;48.730;10.294;2022-12-11T02:20:39;18.93;;;13.73;;
19231;SDS011;9750;48.730;10.294;2022-12-11T02:26:55;19.23;;;14.03;;
19231;SDS011;9750;48.730;10.294;2022-12-11T02:29:38;18.23;;;12.97;;
19231;SDS011;9750;48.730;10.294;2022-12-11T02:32:12;17.60;;;13.70;;
19231;SDS011;9750;48.730;10.294;2022-12-11T02:34:45;14.20;;;11.30;;
19231;SDS011;9750;48.730;10.294;2022-12-11T02:37:20;13.87;;;10.67;;
19231;SDS011;9750;48.730;10.294;2022-12-11T02:39:50;13.73;;;11.00;;
19231;SDS011;9750;48.730;10.294;2022-12-11T02:42:20;15.37;;;11.50;;
19231;SDS011;9750;48.730;10.294;2022-12-11T02:44:51;10.50;;;9.20;;
19231;SDS011;9750;48.730;10.294;2022-12-11T02:47:20;14.07;;;10.13;;
19231;SDS011;9750;48.730;10.294;2022-12-11T02:49:50;12.83;;;10.20;;
19231;SDS011;9750;48.730;10.294;2022-12-11T02:52:20;14.13;;;10.97;;
19231;SDS011;9750;48.730;10.294;2022-12-11T02:54:50;12.17;;;10.20;;
19231;SDS011;9750;48.730;10.294;2022-12-11T02:57:20;15.13;;;11.10;;
19231;SDS011;9750;48.730;10.294;2022-12-11T02:59:54;12.87;;;9.77;;
19231;SDS011;9750;48.730;10.294;2022-12-11T03:02:22;15.20;;;11.13;;
19231;SDS011;9750;48.730;10.294;2022-12-11T03:04:49;11.63;;;10.13;;
19231;SDS011;9750;48.730;10.294;2022-12-11T03:07:18;15.23;;;10.33;;
19231;SDS011;9750;48.730;10.294;2022-12-11T03:09:49;10.33;;;9.23;;
19231;SDS011;9750;48.730;10.294;2022-12-11T03:12:17;15.93;;;11.17;;
19231;SDS011;9750;48.730;10.294;2022-12-11T03:14:47;9.77;;;8.60;;
19231;SDS011;9750;48.730;10.294;2022-12-11T03:17:18;11.50;;;9.40;;
19231;SDS011;9750;48.730;10.294;2022-12-11T03:19:49;10.70;;;8.87;;
19231;SDS011;9750;48.730;10.294;2022-12-11T03:22:25;13.90;;;10.00;;
19231;SDS011;9750;48.730;10.294;2022-12-11T03:24:59;14.50;;;9.43;;
19231;SDS011;9750;48.730;10.294;2022-12-11T03:27:31;12.43;;;9.23;;
19231;SDS011;9750;48.730;10.294;2022-12-11T03:30:03;9.33;;;8.33;;
19231;SDS011;9750;48.730;10.294;2022-12-11T03:32:37;12.17;;;8.97;;
19231;SDS011;9750;48.730;10.294;2022-12-11T03:35:07;8.33;;;7.23;;
19231;SDS011;9750;48.730;10.294;2022-12-11T03:37:39;11.40;;;8.67;;
19231;SDS011;9750;48.730;10.294;2022-12-11T03:40:09;13.50;;;10.03;;
19231;SDS011;9750;48.730;10.294;2022-12-11T03:42:40;18.03;;;10.67;;
19231;SDS011;9750;48.730;10.294;2022-12-11T03:45:09;10.07;;;7.97;;
19231;SDS011;9750;48.730;10.294;2022-12-11T03:47:40;13.03;;;9.33;;
19231;SDS011;9750;48.730;10.294;2022-12-11T03:50:09;9.93;;;8.10;;
19231;SDS011;9750;48.730;10.294;2022-12-11T03:52:38;11.03;;;8.83;;
19231;SDS011;9750;48.730;10.294;2022-12-11T03:55:07;10.93;;;8.77;;
19231;SDS011;9750;48.730;10.294;2022-12-11T03:57:37;12.13;;;9.40;;
19231;SDS011;9750;48.730;10.294;2022-12-11T04:00:05;10.60;;;8.77;;
19231;SDS011;9750;48.730;10.294;2022-12-11T04:02:35;14.40;;;9.67;;
19231;SDS011;9750;48.730;10.294;2022-12-11T04:05:04;9.43;;;8.07;;
19231;SDS011;9750;48.730;10.294;2022-12-11T04:07:32;13.50;;;9.37;;
19231;SDS011;9750;48.730;10.294;2022-12-11T04:09:59;8.80;;;7.63;;
19231;SDS011;9750;48.730;10.294;2022-12-11T04:12:27;12.67;;;9.20;;
19231;SDS011;9750;48.730;10.294;2022-12-11T04:14:54;8.40;;;7.27;;
19231;SDS011;9750;48.730;10.294;2022-12-11T04:17:26;10.30;;;8.03;;
19231;SDS011;9750;48.730;10.294;2022-12-11T04:20:12;8.50;;;7.60;;
19231;SDS011;9750;48.730;10.294;2022-12-11T04:25:46;10.80;;;8.57;;
19231;SDS011;9750;48.730;10.294;2022-12-11T04:28:13;10.20;;;8.07;;
19231;SDS011;9750;48.730;10.294;2022-12-11T04:30:46;9.67;;;7.97;;
19231;SDS011;9750;48.730;10.294;2022-12-11T04:33:14;10.33;;;7.37;;
19231;SDS011;9750;48.730;10.294;2022-12-11T04:35:43;8.17;;;7.10;;
19231;SDS011;9750;48.730;10.294;2022-12-11T04:38:10;9.83;;;7.83;;
19231;SDS011;9750;48.730;10.294;2022-12-11T04:40:38;9.63;;;7.57;;
19231;SDS011;9750;48.730;10.294;2022-12-11T04:45:59;9.77;;;7.70;;
19231;SDS011;9750;48.730;10.294;2022-12-11T04:48:27;11.97;;;8.97;;
19231;SDS011;9750;48.730;10.294;2022-12-11T04:50:56;9.70;;;7.57;;
19231;SDS011;9750;48.730;10.294;2022-12-11T04:53:24;11.30;;;8.27;;
19231;SDS011;9750;48.730;10.294;2022-12-11T04:55:51;51.20;;;20.93;;
19231;SDS011;9750;48.730;10.294;2022-12-11T04:58:19;10.00;;;8.13;;
19231;SDS011;9750;48.730;10.294;2022-12-11T05:00:46;12.10;;;9.93;;
19231;SDS011;9750;48.730;10.294;2022-12-11T05:03:14;10.97;;;8.87;;
19231;SDS011;9750;48.730;10.294;2022-12-11T05:05:46;12.70;;;9.10;;
19231;SDS011;9750;48.730;10.294;2022-12-11T05:08:16;12.47;;;9.60;;
19231;SDS011;9750;48.730;10.294;2022-12-11T05:10:43;31.60;;;17.97;;
19231;SDS011;9750;48.730;10.294;2022-12-11T05:13:11;10.23;;;8.70;;
19231;SDS011;9750;48.730;10.294;2022-12-11T05:15:38;14.53;;;10.60;;
19231;SDS011;9750;48.730;10.294;2022-12-11T05:18:05;11.90;;;9.23;;
19231;SDS011;9750;48.730;10.294;2022-12-11T05:20:33;13.27;;;10.10;;
19231;SDS011;9750;48.730;10.294;2022-12-11T05:23:00;10.30;;;8.50;;
19231;SDS011;9750;48.730;10.294;2022-12-11T05:25:29;13.73;;;9.93;;
19231;SDS011;9750;48.730;10.294;2022-12-11T05:27:56;10.13;;;8.60;;
19231;SDS011;9750;48.730;10.294;2022-12-11T05:30:23;12.07;;;8.53;;
19231;SDS011;9750;48.730;10.294;2022-12-11T05:32:50;9.53;;;7.60;;
19231;SDS011;9750;48.730;10.294;2022-12-11T05:35:18;14.83;;;9.10;;
19231;SDS011;9750;48.730;10.294;2022-12-11T05:37:45;8.90;;;7.60;;
19231;SDS011;9750;48.730;10.294;2022-12-11T05:40:12;13.87;;;9.30;;
19231;SDS011;9750;48.730;10.294;2022-12-11T05:42:41;10.77;;;8.60;;
19231;SDS011;9750;48.730;10.294;2022-12-11T05:45:09;12.37;;;9.17;;
19231;SDS011;9750;48.730;10.294;2022-12-11T05:47:36;9.60;;;8.43;;
19231;SDS011;9750;48.730;10.294;2022-12-11T05:50:04;10.50;;;8.33;;
19231;SDS011;9750;48.730;10.294;2022-12-11T05:52:32;9.60;;;8.27;;
19231;SDS011;9750;48.730;10.294;2022-12-11T05:54:59;11.10;;;8.60;;
19231;SDS011;9750;48.730;10.294;2022-12-11T05:57:26;8.53;;;7.63;;
19231;SDS011;9750;48.730;10.294;2022-12-11T05:59:55;10.07;;;8.27;;
19231;SDS011;9750;48.730;10.294;2022-12-11T06:02:22;10.43;;;8.13;;
19231;SDS011;9750;48.730;10.294;2022-12-11T06:04:49;11.80;;;8.80;;
19231;SDS011;9750;48.730;10.294;2022-12-11T06:07:17;8.33;;;7.43;;
19231;SDS011;9750;48.730;10.294;2022-12-11T06:09:44;11.00;;;7.90;;
19231;SDS011;9750;48.730;10.294;2022-12-11T06:12:11;8.20;;;7.40;;
19231;SDS011;9750;48.730;10.294;2022-12-11T06:14:39;11.57;;;8.80;;
19231;SDS011;9750;48.730;10.294;2022-12-11T06:17:08;10.43;;;8.40;;
19231;SDS011;9750;48.730;10.294;2022-12-11T06:19:35;11.50;;;8.30;;
19231;SDS011;9750;48.730;10.294;2022-12-11T06:22:03;8.87;;;7.97;;
19231;SDS011;9750;48.730;10.294;2022-12-11T06:24:30;10.90;;;8.30;;
19231;SDS011;9750;48.730;10.294;2022-12-11T06:26:58;12.23;;;9.90;;
19231;SDS011;9750;48.730;10.294;2022-12-11T06:29:25;14.53;;;10.73;;
19231;SDS011;9750;48.730;10.294;2022-12-11T06:31:52;44.30;;;24.93;;
19231;SDS011;9750;48.730;10.294;2022-12-11T06:34:21;11.33;;;8.83;;
19231;SDS011;9750;48.730;10.294;2022-12-11T06:36:48;8.00;;;7.03;;
19231;SDS011;9750;48.730;10.294;2022-12-11T06:39:16;12.27;;;10.07;;
19231;SDS011;9750;48.730;10.294;2022-12-11T06:41:43;18.23;;;14.60;;
19231;SDS011;9750;48.730;10.294;2022-12-11T06:44:10;14.63;;;10.60;;
19231;SDS011;9750;48.730;10.294;2022-12-11T06:46:37;12.53;;;9.17;;
19231;SDS011;9750;48.730;10.294;2022-12-11T06:49:05;15.63;;;12.93;;
19231;SDS011;9750;48.730;10.294;2022-12-11T06:51:33;17.57;;;14.77;;
19231;SDS011;9750;48.730;10.294;2022-12-11T06:57:22;13.47;;;10.20;;
19231;SDS011;9750;48.730;10.294;2022-12-11T06:59:50;12.73;;;9.87;;
19231;SDS011;9750;48.730;10.294;2022-12-11T07:02:18;13.93;;;10.30;;
19231;SDS011;9750;48.730;10.294;2022-12-11T07:04:45;11.73;;;8.57;;
19231;SDS011;9750;48.730;10.294;2022-12-11T07:07:15;11.47;;;9.23;;
19231;SDS011;9750;48.730;10.294;2022-12-11T07:09:44;8.03;;;7.23;;
19231;SDS011;9750;48.730;10.294;2022-12-11T07:12:11;12.97;;;11.07;;
19231;SDS011;9750;48.730;10.294;2022-12-11T07:14:39;9.47;;;8.47;;
19231;SDS011;9750;48.730;10.294;2022-12-11T07:17:06;13.27;;;10.43;;
19231;SDS011;9750;48.730;10.294;2022-12-11T07:19:33;12.20;;;10.50;;
19231;SDS011;9750;48.730;10.294;2022-12-11T07:22:00;19.00;;;13.73;;
19231;SDS011;9750;48.730;10.294;2022-12-11T07:24:29;12.53;;;10.77;;
19231;SDS011;9750;48.730;10.294;2022-12-11T07:26:57;18.13;;;12.00;;
19231;SDS011;9750;48.730;10.294;2022-12-11T07:29:24;15.37;;;11.83;;
19231;SDS011;9750;48.730;10.294;2022-12-11T07:31:51;17.73;;;14.37;;
19231;SDS011;9750;48.730;10.294;2022-12-11T07:34:19;16.20;;;14.47;;
19231;SDS011;9750;48.730;10.294;2022-12-11T07:36:46;19.17;;;13.33;;
19231;SDS011;9750;48.730;10.294;2022-12-11T07:39:13;10.60;;;9.43;;
19231;SDS011;9750;48.730;10.294;2022-12-11T07:41:42;14.43;;;10.70;;
19231;SDS011;9750;48.730;10.294;2022-12-11T07:44:11;12.00;;;10.43;;
19231;SDS011;9750;48.730;10.294;2022-12-11T07:46:38;14.50;;;13.03;;
19231;SDS011;9750;48.730;10.294;2022-12-11T07:49:06;12.83;;;9.17;;
19231;SDS011;9750;48.730;10.294;2022-12-11T07:51:34;9.70;;;8.20;;
19231;SDS011;9750;48.730;10.294;2022-12-11T07:54:03;12.83;;;10.30;;
19231;SDS011;9750;48.730;10.294;2022-12-11T07:56:33;10.40;;;8.47;;
19231;SDS011;9750;48.730;10.294;2022-12-11T07:59:03;13.93;;;10.17;;
19231;SDS011;9750;48.730;10.294;2022-12-11T08:01:32;10.17;;;8.30;;
19231;SDS011;9750;48.730;10.294;2022-12-11T08:04:00;12.37;;;9.40;;
19231;SDS011;9750;48.730;10.294;2022-12-11T08:06:29;10.77;;;8.70;;
19231;SDS011;9750;48.730;10.294;2022-12-11T08:08:59;11.90;;;9.47;;
19231;SDS011;9750;48.730;10.294;2022-12-11T08:11:28;12.10;;;9.00;;
19231;SDS011;9750;48.730;10.294;2022-12-11T08:13:56;13.00;;;9.60;;
19231;SDS011;9750;48.730;10.294;2022-12-11T08:16:26;10.40;;;8.43;;
19231;SDS011;9750;48.730;10.294;2022-12-11T08:18:53;13.03;;;10.87;;
19231;SDS011;9750;48.730;10.294;2022-12-11T08:21:21;9.93;;;8.33;;
19231;SDS011;9750;48.730;10.294;2022-12-11T08:23:50;13.03;;;9.70;;
19231;SDS011;9750;48.730;10.294;2022-12-11T08:26:18;10.67;;;8.80;;
19231;SDS011;9750;48.730;10.294;2022-12-11T08:28:48;14.10;;;10.07;;
19231;SDS011;9750;48.730;10.294;2022-12-11T08:31:16;13.70;;;10.73;;
19231;SDS011;9750;48.730;10.294;2022-12-11T08:33:45;16.50;;;14.80;;
19231;SDS011;9750;48.730;10.294;2022-12-11T08:36:14;9.87;;;8.83;;
19231;SDS011;9750;48.730;10.294;2022-12-11T08:38:42;15.07;;;13.30;;
19231;SDS011;9750;48.730;10.294;2022-12-11T08:41:11;9.20;;;7.20;;
19231;SDS011;9750;48.730;10.294;2022-12-11T08:43:39;13.90;;;9.47;;
19231;SDS011;9750;48.730;10.294;2022-12-11T08:46:07;12.37;;;8.90;;
19231;SDS011;9750;48.730;10.294;2022-12-11T08:48:35;12.17;;;8.90;;
19231;SDS011;9750;48.730;10.294;2022-12-11T08:51:06;9.37;;;7.53;;
19231;SDS011;9750;48.730;10.294;2022-12-11T08:53:36;12.87;;;7.80;;
19231;SDS011;9750;48.730;10.294;2022-12-11T08:56:04;9.67;;;8.03;;
19231;SDS011;9750;48.730;10.294;2022-12-11T08:58:33;10.60;;;8.03;;
19231;SDS011;9750;48.730;10.294;2022-12-11T09:01:04;12.93;;;8.30;;
19231;SDS011;9750;48.730;10.294;2022-12-11T09:03:33;12.10;;;8.07;;
19231;SDS011;9750;48.730;10.294;2022-12-11T09:06:02;12.00;;;8.83;;
19231;SDS011;9750;48.730;10.294;2022-12-11T09:08:32;8.43;;;7.07;;
19231;SDS011;9750;48.730;10.294;2022-12-11T09:11:03;10.73;;;8.33;;
19231;SDS011;9750;48.730;10.294;2022-12-11T09:13:31;12.43;;;9.20;;
19231;SDS011;9750;48.730;10.294;2022-12-11T09:15:59;12.30;;;9.87;;
19231;SDS011;9750;48.730;10.294;2022-12-11T09:18:29;13.70;;;9.40;;
19231;SDS011;9750;48.730;10.294;2022-12-11T09:20:57;18.10;;;10.57;;
19231;SDS011;9750;48.730;10.294;2022-12-11T09:23:25;36.23;;;21.17;;
19231;SDS011;9750;48.730;10.294;2022-12-11T09:25:54;34.37;;;18.93;;
19231;SDS011;9750;48.730;10.294;2022-12-11T09:28:22;12.10;;;8.27;;
19231;SDS011;9750;48.730;10.294;2022-12-11T09:30:49;12.10;;;8.63;;
19231;SDS011;9750;48.730;10.294;2022-12-11T09:33:19;11.70;;;8.73;;
19231;SDS011;9750;48.730;10.294;2022-12-11T09:35:55;11.23;;;8.33;;
19231;SDS011;9750;48.730;10.294;2022-12-11T09:38:23;11.10;;;8.30;;
19231;SDS011;9750;48.730;10.294;2022-12-11T09:40:50;7.67;;;6.77;;
19231;SDS011;9750;48.730;10.294;2022-12-11T09:43:21;11.27;;;8.00;;
19231;SDS011;9750;48.730;10.294;2022-12-11T09:46:02;9.57;;;6.73;;
19231;SDS011;9750;48.730;10.294;2022-12-11T09:48:34;10.37;;;7.40;;
19231;SDS011;9750;48.730;10.294;2022-12-11T09:51:04;9.63;;;6.23;;
19231;SDS011;9750;48.730;10.294;2022-12-11T09:53:40;12.20;;;7.60;;
19231;SDS011;9750;48.730;10.294;2022-12-11T09:56:10;9.27;;;7.30;;
19231;SDS011;9750;48.730;10.294;2022-12-11T10:02:24;8.37;;;6.40;;
19231;SDS011;9750;48.730;10.294;2022-12-11T10:05:02;9.17;;;7.17;;
19231;SDS011;9750;48.730;10.294;2022-12-11T10:07:40;9.90;;;6.80;;
19231;SDS011;9750;48.730;10.294;2022-12-11T10:10:15;8.63;;;6.53;;
19231;SDS011;9750;48.730;10.294;2022-12-11T10:12:51;5.93;;;5.20;;
19231;SDS011;9750;48.730;10.294;2022-12-11T10:15:30;7.63;;;5.70;;
19231;SDS011;9750;48.730;10.294;2022-12-11T10:18:04;8.73;;;6.10;;
19231;SDS011;9750;48.730;10.294;2022-12-11T10:20:38;9.47;;;6.67;;
19231;SDS011;9750;48.730;10.294;2022-12-11T10:26:32;8.53;;;5.30;;
19231;SDS011;9750;48.730;10.294;2022-12-11T10:29:00;6.07;;;5.00;;
19231;SDS011;9750;48.730;10.294;2022-12-11T10:31:29;7.23;;;5.13;;
19231;SDS011;9750;48.730;10.294;2022-12-11T10:37:27;6.87;;;5.13;;
19231;SDS011;9750;48.730;10.294;2022-12-11T10:39:54;9.23;;;5.57;;
19231;SDS011;9750;48.730;10.294;2022-12-11T10:42:22;7.60;;;6.17;;
19231;SDS011;9750;48.730;10.294;2022-12-11T10:44:56;8.23;;;5.37;;
19231;SDS011;9750;48.730;10.294;2022-12-11T10:47:25;6.70;;;5.57;;
19231;SDS011;9750;48.730;10.294;2022-12-11T10:49:57;7.23;;;5.90;;
19231;SDS011;9750;48.730;10.294;2022-12-11T10:52:28;8.60;;;5.67;;
19231;SDS011;9750;48.730;10.294;2022-12-11T10:55:03;8.53;;;5.30;;
19231;SDS011;9750;48.730;10.294;2022-12-11T10:57:35;9.10;;;5.37;;
19231;SDS011;9750;48.730;10.294;2022-12-11T11:00:05;6.03;;;4.83;;
19231;SDS011;9750;48.730;10.294;2022-12-11T11:02:34;7.90;;;6.03;;
19231;SDS011;9750;48.730;10.294;2022-12-11T11:05:10;8.13;;;6.40;;
19231;SDS011;9750;48.730;10.294;2022-12-11T11:07:42;7.33;;;6.03;;
19231;SDS011;9750;48.730;10.294;2022-12-11T11:10:13;7.77;;;5.77;;
19231;SDS011;9750;48.730;10.294;2022-12-11T11:12:42;9.43;;;5.97;;
19231;SDS011;9750;48.730;10.294;2022-12-11T11:15:12;10.17;;;6.40;;
19231;SDS011;9750;48.730;10.294;2022-12-11T11:17:41;8.43;;;6.17;;
19231;SDS011;9750;48.730;10.294;2022-12-11T11:20:13;6.37;;;5.27;;
19231;SDS011;9750;48.730;10.294;2022-12-11T11:22:43;6.27;;;4.60;;
19231;SDS011;9750;48.730;10.294;2022-12-11T11:25:16;6.37;;;4.47;;
19231;SDS011;9750;48.730;10.294;2022-12-11T11:27:47;9.37;;;6.00;;
19231;SDS011;9750;48.730;10.294;2022-12-11T11:30:18;7.97;;;5.70;;
19231;SDS011;9750;48.730;10.294;2022-12-11T11:32:48;9.47;;;5.80;;
19231;SDS011;9750;48.730;10.294;2022-12-11T11:35:20;9.27;;;6.83;;
19231;SDS011;9750;48.730;10.294;2022-12-11T11:38:03;8.40;;;5.97;;
19231;SDS011;9750;48.730;10.294;2022-12-11T11:40:40;7.53;;;5.87;;
19231;SDS011;9750;48.730;10.294;2022-12-11T11:43:13;6.40;;;5.53;;
19231;SDS011;9750;48.730;10.294;2022-12-11T11:45:49;9.27;;;6.00;;
19231;SDS011;9750;48.730;10.294;2022-12-11T11:48:30;7.93;;;5.90;;
19231;SDS011;9750;48.730;10.294;2022-12-11T11:51:06;10.63;;;7.00;;
19231;SDS011;9750;48.730;10.294;2022-12-11T11:53:42;8.20;;;6.07;;
19231;SDS011;9750;48.730;10.294;2022-12-11T11:56:16;7.83;;;6.20;;
19231;SDS011;9750;48.730;10.294;2022-12-11T11:58:49;6.87;;;5.23;;
19231;SDS011;9750;48.730;10.294;2022-12-11T12:01:23;9.00;;;5.70;;
19231;SDS011;9750;48.730;10.294;2022-12-11T12:03:51;8.47;;;5.73;;
19231;SDS011;9750;48.730;10.294;2022-12-11T12:06:23;8.67;;;5.67;;
19231;SDS011;9750;48.730;10.294;2022-12-11T12:08:59;8.17;;;5.90;;
19231;SDS011;9750;48.730;10.294;2022-12-11T12:11:34;6.80;;;4.97;;
19231;SDS011;9750;48.730;10.294;2022-12-11T12:14:09;8.87;;;5.80;;
19231;SDS011;9750;48.730;10.294;2022-12-11T12:16:42;7.73;;;5.57;;
19231;SDS011;9750;48.730;10.294;2022-12-11T12:19:19;8.57;;;5.50;;
19231;SDS011;9750;48.730;10.294;2022-12-11T12:25:23;9.07;;;6.00;;
19231;SDS011;9750;48.730;10.294;2022-12-11T12:27:55;8.67;;;6.17;;
19231;SDS011;9750;48.730;10.294;2022-12-11T12:30:34;8.43;;;6.50;;
19231;SDS011;9750;48.730;10.294;2022-12-11T12:36:34;9.67;;;7.20;;
19231;SDS011;9750;48.730;10.294;2022-12-11T12:39:10;9.10;;;6.70;;
19231;SDS011;9750;48.730;10.294;2022-12-11T12:41:49;11.40;;;7.57;;
19231;SDS011;9750;48.730;10.294;2022-12-11T12:44:22;7.83;;;6.47;;
19231;SDS011;9750;48.730;10.294;2022-12-11T12:46:54;10.27;;;7.07;;
19231;SDS011;9750;48.730;10.294;2022-12-11T12:49:34;10.67;;;6.77;;
19231;SDS011;9750;48.730;10.294;2022-12-11T12:52:05;11.57;;;6.97;;
19231;SDS011;9750;48.730;10.294;2022-12-11T12:54:39;9.93;;;6.63;;
19231;SDS011;9750;48.730;10.294;2022-12-11T12:57:31;7.00;;;5.83;;
19231;SDS011;9750;48.730;10.294;2022-12-11T12:59:59;9.57;;;7.30;;
19231;SDS011;9750;48.730;10.294;2022-12-11T13:02:26;11.17;;;7.00;;
19231;SDS011;9750;48.730;10.294;2022-12-11T13:04:55;9.57;;;7.50;;
19231;SDS011;9750;48.730;10.294;2022-12-11T13:07:26;10.07;;;6.77;;
19231;SDS011;9750;48.730;10.294;2022-12-11T13:09:58;15.60;;;10.30;;
19231;SDS011;9750;48.730;10.294;2022-12-11T13:12:42;17.83;;;10.77;;
19231;SDS011;9750;48.730;10.294;2022-12-11T13:17:55;13.43;;;8.63;;
19231;SDS011;9750;48.730;10.294;2022-12-11T13:20:24;11.67;;;7.20;;
19231;SDS011;9750;48.730;10.294;2022-12-11T13:22:53;10.87;;;7.50;;
19231;SDS011;9750;48.730;10.294;2022-12-11T13:25:44;12.40;;;7.00;;
19231;SDS011;9750;48.730;10.294;2022-12-11T13:28:22;7.07;;;6.13;;
19231;SDS011;9750;48.730;10.294;2022-12-11T13:31:26;10.20;;;8.20;;
19231;SDS011;9750;48.730;10.294;2022-12-11T13:34:04;9.97;;;7.77;;
19231;SDS011;9750;48.730;10.294;2022-12-11T13:36:38;10.83;;;7.50;;
19231;SDS011;9750;48.730;10.294;2022-12-11T13:39:14;10.27;;;7.70;;
19231;SDS011;9750;48.730;10.294;2022-12-11T13:41:45;9.63;;;7.70;;
19231;SDS011;9750;48.730;10.294;2022-12-11T13:44:19;10.00;;;8.03;;
19231;SDS011;9750;48.730;10.294;2022-12-11T13:46:49;8.57;;;7.17;;
19231;SDS011;9750;48.730;10.294;2022-12-11T13:49:20;8.83;;;6.43;;
19231;SDS011;9750;48.730;10.294;2022-12-11T13:51:50;8.23;;;6.30;;
19231;SDS011;9750;48.730;10.294;2022-12-11T13:54:22;13.57;;;9.17;;
19231;SDS011;9750;48.730;10.294;2022-12-11T13:56:54;8.50;;;6.37;;
19231;SDS011;9750;48.730;10.294;2022-12-11T13:59:25;9.63;;;6.83;;
19231;SDS011;9750;48.730;10.294;2022-12-11T14:01:59;11.80;;;8.10;;
19231;SDS011;9750;48.730;10.294;2022-12-11T14:04:30;10.53;;;7.53;;
19231;SDS011;9750;48.730;10.294;2022-12-11T14:07:00;9.87;;;6.33;;
19231;SDS011;9750;48.730;10.294;2022-12-11T14:09:32;10.47;;;7.33;;
19231;SDS011;9750;48.730;10.294;2022-12-11T14:12:00;7.57;;;6.33;;
19231;SDS011;9750;48.730;10.294;2022-12-11T14:14:33;8.63;;;6.53;;
19231;SDS011;9750;48.730;10.294;2022-12-11T14:17:08;7.77;;;6.37;;
19231;SDS011;9750;48.730;10.294;2022-12-11T14:19:39;8.93;;;6.37;;
19231;SDS011;9750;48.730;10.294;2022-12-11T14:22:15;10.57;;;6.50;;
19231;SDS011;9750;48.730;10.294;2022-12-11T14:24:47;10.87;;;8.37;;
19231;SDS011;9750;48.730;10.294;2022-12-11T14:27:16;35.13;;;19.87;;
19231;SDS011;9750;48.730;10.294;2022-12-11T14:29:45;15.10;;;11.53;;
19231;SDS011;9750;48.730;10.294;2022-12-11T14:35:37;11.93;;;10.73;;
19231;SDS011;9750;48.730;10.294;2022-12-11T14:38:09;23.70;;;16.83;;
19231;SDS011;9750;48.730;10.294;2022-12-11T14:40:40;12.60;;;9.57;;
19231;SDS011;9750;48.730;10.294;2022-12-11T14:43:11;29.10;;;24.00;;
19231;SDS011;9750;48.730;10.294;2022-12-11T14:45:47;41.97;;;33.23;;
19231;SDS011;9750;48.730;10.294;2022-12-11T14:48:20;13.77;;;12.30;;
19231;SDS011;9750;48.730;10.294;2022-12-11T14:50:51;15.20;;;13.63;;
19231;SDS011;9750;48.730;10.294;2022-12-11T14:53:22;11.20;;;9.77;;
19231;SDS011;9750;48.730;10.294;2022-12-11T14:55:53;12.03;;;8.37;;
19231;SDS011;9750;48.730;10.294;2022-12-11T14:58:23;8.80;;;7.03;;
19231;SDS011;9750;48.730;10.294;2022-12-11T15:00:57;12.63;;;9.20;;
19231;SDS011;9750;48.730;10.294;2022-12-11T15:03:29;8.67;;;7.30;;
19231;SDS011;9750;48.730;10.294;2022-12-11T15:05:58;12.70;;;8.70;;
19231;SDS011;9750;48.730;10.294;2022-12-11T15:08:26;9.23;;;8.10;;
19231;SDS011;9750;48.730;10.294;2022-12-11T15:10:58;11.87;;;8.30;;
19231;SDS011;9750;48.730;10.294;2022-12-11T15:13:29;10.23;;;7.80;;
19231;SDS011;9750;48.730;10.294;2022-12-11T15:15:58;12.57;;;8.97;;
19231;SDS011;9750;48.730;10.294;2022-12-11T15:18:27;19.00;;;12.37;;
19231;SDS011;9750;48.730;10.294;2022-12-11T15:20:57;11.53;;;8.50;;
19231;SDS011;9750;48.730;10.294;2022-12-11T15:23:26;12.53;;;9.20;;
19231;SDS011;9750;48.730;10.294;2022-12-11T15:25:55;17.07;;;11.60;;
19231;SDS011;9750;48.730;10.294;2022-12-11T15:28:27;10.77;;;8.33;;
19231;SDS011;9750;48.730;10.294;2022-12-11T15:30:59;10.97;;;8.77;;
19231;SDS011;9750;48.730;10.294;2022-12-11T15:33:27;11.70;;;9.33;;